Time;durP1;ratioP1;P1;durP2;ratioP2;P2;SDS_P1;SDS_P2;PMS_P1;PMS_P2;Temp;Humidity;BMP_temperature;BMP_pressure;BME280_temperature;BME280_humidity;BME280_pressure;Samples;Min_cycle;Max_cycle;Signal;HPM_P1;HPM_P2
2023/10/11 00:00:33;;;;;;;;;;;;;;;15.06;100.00;101469.72;5035117;28;20288;-78
2023/10/11 00:03:04;;;;;;;;;;;;;;;15.04;100.00;101458.41;5044899;28;20002;-78
2023/10/11 00:05:36;;;;;;;;;;;;;;;15.04;100.00;101459.28;5018121;28;19924;-77
2023/10/11 00:08:01;;;;;;;;;;;;;;;15.01;100.00;101459.38;5018105;28;19943;-78
2023/10/11 00:10:27;;;;;;;;;;;;;;;15.01;100.00;101461.13;5019104;28;20431;-78
2023/10/11 00:12:58;;;;;;;;;;;;;;;14.99;100.00;101455.94;5010608;28;19918;-78
2023/10/11 00:15:26;;;;;;;;;;;;;;;14.96;100.00;101458.66;5022164;28;19913;-78
2023/10/11 00:17:51;;;;;;;;;;;;;;;14.93;100.00;101453.50;5042357;28;20009;-78
2023/10/11 00:20:27;;;;;;;;;;;;;;;14.90;100.00;101449.19;5010570;28;20008;-77
2023/10/11 00:22:53;;;;;;;;;;;;;;;14.89;100.00;101457.13;5025945;28;19921;-78
2023/10/11 00:25:23;;;;;;;;;;;;;;;14.86;100.00;101455.47;5013651;28;19937;-78
2023/10/11 00:27:49;;;;;;;;;;;;;;;14.83;100.00;101458.19;5016410;28;20322;-78
2023/10/11 00:30:17;;;;;;;;;;;;;;;14.82;100.00;101464.34;5014019;28;19973;-77
2023/10/11 00:32:46;;;;;;;;;;;;;;;14.83;100.00;101459.94;5034869;28;20016;-78
2023/10/11 00:35:18;;;;;;;;;;;;;;;14.82;100.00;101461.72;5038631;28;19917;-77
2023/10/11 00:37:44;;;;;;;;;;;;;;;14.83;100.00;101460.81;5022750;28;19999;-78
2023/10/11 00:40:13;;;;;;;;;;;;;;;14.82;100.00;101455.63;5013280;28;19969;-77
2023/10/11 00:42:39;;;;;;;;;;;;;;;14.80;100.00;101453.03;5016067;28;19930;-77
2023/10/11 00:45:07;;;;;;;;;;;;;;;14.81;100.00;101453.88;5013856;28;19917;-78
2023/10/11 00:47:40;;;;;;;;;;;;;;;14.81;100.00;101451.25;5022045;28;20012;-78
2023/10/11 00:50:07;;;;;;;;;;;;;;;14.78;100.00;101448.72;5007780;28;20360;-77
2023/10/11 00:52:34;;;;;;;;;;;;;;;14.75;100.00;101445.31;5014668;28;19922;-78
2023/10/11 00:55:00;;;;;;;;;;;;;;;14.72;100.00;101450.66;5046023;28;19973;-78
2023/10/11 00:57:27;;;;;;;;;;;;;;;14.70;100.00;101457.69;5010862;28;19917;-78
2023/10/11 00:59:52;;;;;;;;;;;;;;;14.67;100.00;101444.66;5019866;28;20031;-77
2023/10/11 01:02:18;;;;;;;;;;;;;;;14.63;100.00;101450.91;5010536;28;20323;-78
2023/10/11 01:04:44;;;;;;;;;;;;;;;14.58;100.00;101449.34;5037734;28;20296;-77
2023/10/11 01:07:10;;;;;;;;;;;;;;;14.55;100.00;101442.44;5017040;28;20004;-78
2023/10/11 01:09:37;;;;;;;;;;;;;;;14.50;100.00;101446.91;5014361;28;19922;-78
2023/10/11 01:12:02;;;;;;;;;;;;;;;14.45;100.00;101452.31;5020140;28;19960;-78
2023/10/11 01:14:28;;;;;;;;;;;;;;;14.40;100.00;101448.97;5017510;28;20395;-78
2023/10/11 01:16:53;;;;;;;;;;;;;;;14.36;100.00;101436.00;5020930;28;20360;-78
2023/10/11 01:19:18;;;;;;;;;;;;;;;14.31;100.00;101437.88;5045967;28;20038;-78
2023/10/11 01:21:47;;;;;;;;;;;;;;;14.25;100.00;101438.91;5017244;28;19917;-78
2023/10/11 01:24:14;;;;;;;;;;;;;;;14.20;100.00;101436.44;5011044;28;19924;-77
2023/10/11 01:26:40;;;;;;;;;;;;;;;14.16;100.00;101440.06;5013466;28;19971;-78
2023/10/11 01:29:05;;;;;;;;;;;;;;;14.14;100.00;101435.75;5007587;28;19968;-77
2023/10/11 01:31:33;;;;;;;;;;;;;;;14.11;100.00;101435.84;5003827;28;19918;-78
2023/10/11 01:33:58;;;;;;;;;;;;;;;14.05;100.00;101431.63;5023639;28;19913;-78
2023/10/11 01:36:23;;;;;;;;;;;;;;;14.01;100.00;101436.09;5021802;28;19971;-78
2023/10/11 01:38:49;;;;;;;;;;;;;;;13.98;100.00;101428.31;5014376;28;19939;-78
2023/10/11 01:41:15;;;;;;;;;;;;;;;13.96;100.00;101421.38;5008054;28;19925;-78
2023/10/11 01:43:40;;;;;;;;;;;;;;;13.92;100.00;101425.88;5024101;28;20419;-78
2023/10/11 01:46:05;;;;;;;;;;;;;;;13.92;100.00;101430.25;5022089;28;20000;-78
2023/10/11 01:48:31;;;;;;;;;;;;;;;13.88;100.00;101419.00;5042713;28;19964;-78
2023/10/11 01:51:05;;;;;;;;;;;;;;;13.86;100.00;101420.78;5018162;28;19917;-78
2023/10/11 01:53:30;;;;;;;;;;;;;;;13.84;100.00;101417.38;5020710;28;19923;-78
2023/10/11 01:55:55;;;;;;;;;;;;;;;13.80;100.00;101408.75;5010656;28;20011;-78
2023/10/11 01:58:21;;;;;;;;;;;;;;;13.79;100.00;101419.25;5023894;28;19925;-78
2023/10/11 02:00:48;;;;;;;;;;;;;;;13.78;100.00;101417.53;5031290;28;19944;-78
2023/10/11 02:03:14;;;;;;;;;;;;;;;13.75;100.00;101410.63;5024772;28;19917;-78
2023/10/11 02:05:39;;;;;;;;;;;;;;;13.73;100.00;101403.69;5028328;28;19917;-78
2023/10/11 02:08:06;;;;;;;;;;;;;;;13.70;100.00;101403.78;5019742;28;19916;-78
2023/10/11 02:10:36;;;;;;;;;;;;;;;13.67;100.00;101396.88;5005176;28;19921;-78
2023/10/11 02:13:03;;;;;;;;;;;;;;;13.66;100.00;101391.66;5038246;28;20171;-78
2023/10/11 02:15:29;;;;;;;;;;;;;;;13.63;100.00;101392.59;5049596;28;20445;-77
2023/10/11 02:17:55;;;;;;;;;;;;;;;13.63;100.00;101389.97;5023866;28;19921;-78
2023/10/11 02:20:22;;;;;;;;;;;;;;;13.62;100.00;101388.28;5018415;28;19984;-77
2023/10/11 02:22:52;;;;;;;;;;;;;;;13.61;100.00;101381.31;5018953;28;19917;-78
2023/10/11 02:25:18;;;;;;;;;;;;;;;13.60;100.00;101371.72;5012144;28;19917;-78
2023/10/11 02:27:43;;;;;;;;;;;;;;;13.58;100.00;101374.41;5019984;28;19917;-78
2023/10/11 02:30:19;;;;;;;;;;;;;;;13.56;100.00;101376.19;5017823;28;19932;-78
2023/10/11 02:32:44;;;;;;;;;;;;;;;13.56;100.00;101367.47;5015708;28;19939;-78
2023/10/11 02:35:13;;;;;;;;;;;;;;;13.56;100.00;101365.72;5022748;28;20360;-78
2023/10/11 02:37:38;;;;;;;;;;;;;;;13.54;100.00;101370.16;5012254;28;19917;-78
2023/10/11 02:40:08;;;;;;;;;;;;;;;13.54;100.00;101369.31;5009726;28;20337;-78
2023/10/11 02:42:36;;;;;;;;;;;;;;;13.53;100.00;101385.91;5041621;28;20374;-78
2023/10/11 02:45:06;;;;;;;;;;;;;;;13.50;100.00;101371.13;5015459;28;19927;-78
2023/10/11 02:47:31;;;;;;;;;;;;;;;13.47;100.00;101386.06;5025179;28;20311;-78
2023/10/11 02:50:02;;;;;;;;;;;;;;;13.45;100.00;101382.63;5010216;28;19918;-78
2023/10/11 02:52:35;;;;;;;;;;;;;;;13.43;100.00;101376.56;5009444;28;19921;-78
2023/10/11 02:55:07;;;;;;;;;;;;;;;13.42;100.00;101372.25;5014754;28;19960;-78
2023/10/11 02:57:36;;;;;;;;;;;;;;;13.40;100.00;101376.66;5014268;28;19924;-78
2023/10/11 03:00:10;;;;;;;;;;;;;;;13.39;100.00;101374.94;5027550;28;20315;-78
2023/10/11 03:02:39;;;;;;;;;;;;;;;13.38;100.00;101373.22;5024633;28;20118;-78
2023/10/11 03:05:06;;;;;;;;;;;;;;;13.36;100.00;101365.41;5007226;28;19921;-78
2023/10/11 03:07:33;;;;;;;;;;;;;;;13.34;100.00;101365.47;5019957;28;19966;-78
2023/10/11 03:09:58;;;;;;;;;;;;;;;13.33;100.00;101370.72;5013434;28;20261;-78
2023/10/11 03:12:38;;;;;;;;;;;;;;;13.30;100.00;101373.41;5017820;28;19917;-78
2023/10/11 03:15:11;;;;;;;;;;;;;;;13.28;100.00;101365.63;5017595;28;19943;-78
2023/10/11 03:17:43;;;;;;;;;;;;;;;13.25;100.00;101365.69;5023591;28;19970;-78
2023/10/11 03:20:30;;;;;;;;;;;;;;;13.22;100.00;101344.78;5022912;28;19923;-78
2023/10/11 03:22:54;;;;;;;;;;;;;;;13.21;100.00;101350.06;5020749;28;19918;-78
2023/10/11 03:25:19;;;;;;;;;;;;;;;13.18;100.00;101350.13;5002530;28;20429;-78
2023/10/11 03:27:49;;;;;;;;;;;;;;;13.16;100.00;101355.41;5018483;28;19918;-78
2023/10/11 03:30:15;;;;;;;;;;;;;;;13.16;100.00;101350.19;5018377;28;19932;-78
2023/10/11 03:32:43;;;;;;;;;;;;;;;13.12;100.00;101345.94;5020301;28;19966;-78
2023/10/11 03:35:10;;;;;;;;;;;;;;;13.09;100.00;101357.34;5018513;28;20215;-78
2023/10/11 03:37:37;;;;;;;;;;;;;;;13.07;100.00;101351.28;5017348;28;20357;-78
2023/10/11 03:40:12;;;;;;;;;;;;;;;13.07;100.00;101355.66;5009538;28;20353;-78
2023/10/11 03:42:59;;;;;;;;;;;;;;;13.05;100.00;101341.75;5023282;28;19917;-78
2023/10/11 03:45:27;;;;;;;;;;;;;;;13.03;100.00;101346.16;5020881;28;19917;-78
2023/10/11 03:47:53;;;;;;;;;;;;;;;13.01;100.00;101354.03;5040666;28;20367;-78
2023/10/11 03:50:33;;;;;;;;;;;;;;;13.00;100.00;101346.25;5019103;28;19952;-78
2023/10/11 03:53:06;;;;;;;;;;;;;;;12.98;100.00;101346.28;5014335;28;20367;-78
2023/10/11 03:55:31;;;;;;;;;;;;;;;12.95;100.00;101351.59;5030067;28;19944;-78
2023/10/11 03:57:57;;;;;;;;;;;;;;;12.93;100.00;101344.69;5042746;28;20279;-78
2023/10/11 04:00:25;;;;;;;;;;;;;;;12.91;100.00;101338.63;5017832;28;20454;-78
2023/10/11 04:02:56;;;;;;;;;;;;;;;12.89;100.00;101347.38;5038770;28;19922;-77
2023/10/11 04:05:22;;;;;;;;;;;;;;;12.88;100.00;101344.78;5014246;28;20356;-78
2023/10/11 04:07:47;;;;;;;;;;;;;;;12.85;100.00;101339.63;5037958;28;19952;-78
2023/10/11 04:10:19;;;;;;;;;;;;;;;12.83;100.00;101342.28;5040530;28;19917;-78
2023/10/11 04:12:45;;;;;;;;;;;;;;;12.83;100.00;101339.69;5022049;28;19917;-78
2023/10/11 04:15:24;;;;;;;;;;;;;;;12.81;100.00;101332.75;5020604;28;20311;-78
2023/10/11 04:17:49;;;;;;;;;;;;;;;12.78;100.00;101330.22;5030763;28;19924;-77
2023/10/11 04:20:18;;;;;;;;;;;;;;;12.77;100.00;101325.88;5043288;28;19916;-78
2023/10/11 04:25:39;;;;;;;;;;;;;;;12.70;100.00;101324.31;5030602;28;19998;-78
2023/10/11 04:28:05;;;;;;;;;;;;;;;12.70;100.00;101313.88;5011589;28;20368;-77
2023/10/11 04:30:53;;;;;;;;;;;;;;;12.67;100.00;101327.88;5009926;28;19921;-77
2023/10/11 04:33:21;;;;;;;;;;;;;;;12.66;100.00;101315.69;5008627;28;19924;-78
2023/10/11 04:35:55;;;;;;;;;;;;;;;12.63;100.00;101323.63;5019518;28;19927;-77
2023/10/11 04:38:21;;;;;;;;;;;;;;;12.55;100.00;101309.84;5019850;28;19942;-78
2023/10/11 04:40:52;;;;;;;;;;;;;;;12.58;100.00;101322.84;5014341;28;19917;-78
2023/10/11 04:43:20;;;;;;;;;;;;;;;12.55;100.00;101322.94;5042376;28;19918;-77
2023/10/11 04:45:47;;;;;;;;;;;;;;;12.55;100.00;101328.16;5017481;28;19962;-78
2023/10/11 04:48:15;;;;;;;;;;;;;;;12.54;100.00;101329.91;5020452;28;19928;-77
2023/10/11 04:50:48;;;;;;;;;;;;;;;12.55;100.00;101333.38;5019066;28;19921;-77
2023/10/11 04:53:17;;;;;;;;;;;;;;;12.54;100.00;101343.00;5055080;28;20363;-78
2023/10/11 04:55:46;;;;;;;;;;;;;;;12.54;100.00;101329.06;5049781;28;19947;-78
2023/10/11 04:58:21;;;;;;;;;;;;;;;12.53;100.00;101322.97;5034721;28;19965;-77
2023/10/11 05:00:47;;;;;;;;;;;;;;;12.53;100.00;101322.97;5050017;28;19925;-78
2023/10/11 05:03:12;;;;;;;;;;;;;;;12.55;100.00;101330.78;5052549;28;19981;-77
2023/10/11 05:05:42;;;;;;;;;;;;;;;12.56;100.00;101329.91;5040369;28;20261;-78
2023/10/11 05:08:20;;;;;;;;;;;;;;;12.55;100.00;101338.63;5022989;28;19917;-78
2023/10/11 05:10:46;;;;;;;;;;;;;;;12.54;100.00;101344.75;5009724;28;19921;-78
2023/10/11 05:13:13;;;;;;;;;;;;;;;12.53;100.00;101335.19;5012342;28;19934;-77
2023/10/11 05:15:47;;;;;;;;;;;;;;;12.51;100.00;101339.59;5031580;28;19917;-78
2023/10/11 05:18:18;;;;;;;;;;;;;;;12.50;100.00;101333.50;5020607;28;19925;-78
2023/10/11 05:23:13;;;;;;;;;;;;;;;12.49;100.00;101341.38;5034297;28;19921;-78
2023/10/11 05:31:01;;;;;;;;;;;;;;;12.46;100.00;101352.78;5019857;28;19921;-78
2023/10/11 05:33:45;;;;;;;;;;;;;;;12.46;100.00;101346.69;5046163;28;19916;-78
2023/10/11 05:36:40;;;;;;;;;;;;;;;12.47;100.00;101349.28;5014314;28;19975;-78
2023/10/11 05:52:46;;;;;;;;;;;;;;;12.48;100.00;101348.38;5014552;28;19939;-77
2023/10/11 05:55:13;;;;;;;;;;;;;;;12.47;100.00;101340.56;5022303;28;20420;-78
2023/10/11 05:57:39;;;;;;;;;;;;;;;12.48;100.00;101355.34;5029200;28;19924;-78
2023/10/11 06:00:18;;;;;;;;;;;;;;;12.48;100.00;101345.75;5022659;28;19921;-78
2023/10/11 06:02:43;;;;;;;;;;;;;;;12.52;100.00;101359.63;5017079;28;19917;-77
2023/10/11 06:05:10;;;;;;;;;;;;;;;12.53;100.00;101358.75;5015537;28;20297;-78
2023/10/11 06:07:37;;;;;;;;;;;;;;;12.54;100.00;101356.06;5003789;28;19923;-78
2023/10/11 06:10:06;;;;;;;;;;;;;;;12.56;100.00;101364.75;5033784;28;20019;-78
2023/10/11 06:12:33;;;;;;;;;;;;;;;12.58;100.00;101356.84;5030841;28;19924;-78
2023/10/11 06:15:03;;;;;;;;;;;;;;;12.60;100.00;101360.31;5019258;28;19917;-77
2023/10/11 06:17:41;;;;;;;;;;;;;;;12.64;100.00;101346.25;5027963;28;20004;-78
2023/10/11 06:20:26;;;;;;;;;;;;;;;12.68;100.00;101342.66;5037155;28;20007;-78
2023/10/11 06:22:52;;;;;;;;;;;;;;;12.72;100.00;101359.13;5003743;28;20387;-78
2023/10/11 06:25:22;;;;;;;;;;;;;;;12.76;100.00;101342.50;5008228;28;20034;-77
2023/10/11 06:30:22;;;;;;;;;;;;;;;12.80;100.00;101339.75;5007845;28;19990;-78
2023/10/11 06:32:49;;;;;;;;;;;;;;;12.84;100.00;101349.22;5012431;28;20008;-78
2023/10/11 06:35:23;;;;;;;;;;;;;;;12.90;100.00;101337.75;5015111;28;19917;-78
2023/10/11 06:37:52;;;;;;;;;;;;;;;12.94;100.00;101349.00;5001979;28;19918;-78
2023/10/11 06:40:18;;;;;;;;;;;;;;;12.98;100.00;101348.03;5015736;28;19917;-78
2023/10/11 06:42:43;;;;;;;;;;;;;;;13.02;100.00;101352.31;5017687;28;19923;-78
2023/10/11 06:45:16;;;;;;;;;;;;;;;13.08;100.00;101347.78;5008179;28;19928;-78
2023/10/11 06:47:42;;;;;;;;;;;;;;;13.13;100.00;101348.50;5027713;28;20307;-78
2023/10/11 06:50:10;;;;;;;;;;;;;;;13.19;100.00;101352.72;5038699;28;19924;-78
2023/10/11 06:52:37;;;;;;;;;;;;;;;13.23;100.00;101351.75;5016728;28;19917;-78
2023/10/11 06:55:13;;;;;;;;;;;;;;;13.29;100.00;101356.84;5012979;28;20345;-78
2023/10/11 06:57:39;;;;;;;;;;;;;;;13.37;100.00;101358.41;5007345;28;19978;-78
2023/10/11 07:00:21;;;;;;;;;;;;;;;13.44;100.00;101352.09;5042684;28;19987;-78
2023/10/11 07:02:52;;;;;;;;;;;;;;;13.51;100.00;101356.28;5030598;28;20414;-78
2023/10/11 07:05:19;;;;;;;;;;;;;;;13.56;100.00;101359.63;5043617;28;19918;-78
2023/10/11 07:07:52;;;;;;;;;;;;;;;13.61;100.00;101352.50;5026804;28;19925;-78
2023/10/11 07:10:31;;;;;;;;;;;;;;;13.69;100.00;101366.22;5032832;28;20373;-78
2023/10/11 07:13:05;;;;;;;;;;;;;;;13.78;100.00;101365.13;5030042;28;19923;-78
2023/10/11 07:15:37;;;;;;;;;;;;;;;13.86;100.00;101367.53;5045972;28;19924;-78
2023/10/11 07:18:04;;;;;;;;;;;;;;;13.95;100.00;101380.38;5032486;28;19921;-78
2023/10/11 07:23:18;;;;;;;;;;;;;;;14.12;100.00;101391.22;5037134;28;20019;-78
2023/10/11 07:25:45;;;;;;;;;;;;;;;14.19;100.00;101390.16;5032281;28;19924;-78
2023/10/11 07:28:13;;;;;;;;;;;;;;;14.26;100.00;101393.44;5029213;28;20360;-78
2023/10/11 07:30:38;;;;;;;;;;;;;;;14.35;100.00;101410.66;5033667;28;19923;-78
2023/10/11 07:33:04;;;;;;;;;;;;;;;14.43;100.00;101406.91;5022417;28;20003;-78
2023/10/11 07:35:29;;;;;;;;;;;;;;;14.54;100.00;101408.38;5043829;28;19917;-78
2023/10/11 07:37:56;;;;;;;;;;;;;;;14.64;100.00;101410.66;5027095;28;19917;-78
2023/10/11 07:40:33;;;;;;;;;;;;;;;14.77;100.00;101410.28;5039786;28;20010;-78
2023/10/11 07:42:58;;;;;;;;;;;;;;;14.86;100.00;101402.09;5033901;28;19917;-78
2023/10/11 07:45:26;;;;;;;;;;;;;;;14.96;100.00;101403.50;5031775;28;20380;-78
2023/10/11 07:47:52;;;;;;;;;;;;;;;15.05;100.00;101399.75;5019127;28;19924;-78
2023/10/11 07:50:22;;;;;;;;;;;;;;;15.12;100.00;101391.59;5023772;28;19917;-78
2023/10/11 07:52:47;;;;;;;;;;;;;;;15.22;100.00;101397.41;5021595;28;19925;-78
2023/10/11 07:55:12;;;;;;;;;;;;;;;15.30;100.00;101395.34;5026179;28;19986;-78
2023/10/11 07:57:44;;;;;;;;;;;;;;;15.41;100.00;101400.25;5030650;28;19917;-78
2023/10/11 08:00:17;;;;;;;;;;;;;;;15.53;100.00;101397.22;5019107;28;19998;-78
2023/10/11 08:02:56;;;;;;;;;;;;;;;15.68;100.00;101394.06;5014318;28;20303;-78
2023/10/11 08:05:22;;;;;;;;;;;;;;;15.84;100.00;101396.13;5046904;28;19918;-78
2023/10/11 08:07:47;;;;;;;;;;;;;;;15.98;100.00;101388.59;5031552;28;19932;-78
2023/10/11 08:10:33;;;;;;;;;;;;;;;16.11;100.00;101396.88;5011379;28;19957;-78
2023/10/11 08:12:59;;;;;;;;;;;;;;;16.23;100.00;101395.56;5004216;28;19925;-77
2023/10/11 08:15:25;;;;;;;;;;;;;;;16.27;100.00;101402.41;5022482;28;19917;-77
2023/10/11 08:17:50;;;;;;;;;;;;;;;16.22;100.00;101396.47;5034872;28;20342;-77
2023/10/11 08:20:16;;;;;;;;;;;;;;;16.17;100.00;101393.16;5050107;28;19916;-77
2023/10/11 08:22:41;;;;;;;;;;;;;;;16.11;100.00;101394.25;5033336;28;20408;-78
2023/10/11 08:25:12;;;;;;;;;;;;;;;16.07;100.00;101406.66;5052664;28;19923;-77
2023/10/11 08:27:38;;;;;;;;;;;;;;;16.01;100.00;101413.91;5033343;28;19929;-77
2023/10/11 08:30:09;;;;;;;;;;;;;;;15.94;100.00;101420.31;5035537;28;19921;-77
2023/10/11 08:32:38;;;;;;;;;;;;;;;15.87;100.00;101417.91;5011342;28;19917;-77
2023/10/11 08:35:06;;;;;;;;;;;;;;;15.87;100.00;101420.53;5030851;28;19919;-78
2023/10/11 08:37:32;;;;;;;;;;;;;;;15.93;100.00;101423.88;5019892;28;20408;-78
2023/10/11 08:39:57;;;;;;;;;;;;;;;15.96;100.00;101410.59;5035483;28;19925;-77
2023/10/11 08:42:24;;;;;;;;;;;;;;;16.03;100.00;101412.94;5036500;28;19917;-78
2023/10/11 08:44:54;;;;;;;;;;;;;;;16.10;100.00;101413.56;5019169;28;19997;-77
2023/10/11 08:47:19;;;;;;;;;;;;;;;16.20;100.00;101414.09;5043765;28;19916;-77
2023/10/11 08:49:51;;;;;;;;;;;;;;;16.33;100.00;101410.06;5024836;28;20011;-77
2023/10/11 08:52:23;;;;;;;;;;;;;;;16.54;100.00;101411.84;5049296;28;19962;-77
2023/10/11 08:54:49;;;;;;;;;;;;;;;16.79;100.00;101409.16;5025550;28;20353;-77
2023/10/11 08:57:14;;;;;;;;;;;;;;;16.94;100.00;101412.06;5050529;28;19917;-77
2023/10/11 08:59:49;;;;;;;;;;;;;;;16.97;100.00;101410.19;5023666;28;19917;-78
2023/10/11 09:02:17;;;;;;;;;;;;;;;16.96;100.00;101426.03;5051117;28;19913;-77
2023/10/11 09:04:59;;;;;;;;;;;;;;;17.02;100.00;101428.44;5023822;28;19921;-77
2023/10/11 09:07:37;;;;;;;;;;;;;;;17.22;100.00;101438.13;5039130;28;19952;-78
2023/10/11 09:10:19;;;;;;;;;;;;;;;17.46;100.00;101439.75;5020760;28;19920;-77
2023/10/11 09:12:48;;;;;;;;;;;;;;;17.70;100.00;101436.97;5025365;28;19923;-77
2023/10/11 09:15:14;;;;;;;;;;;;;;;17.90;100.00;101434.34;5026081;28;19963;-78
2023/10/11 09:17:40;;;;;;;;;;;;;;;17.89;100.00;101419.44;5055468;28;19964;-77
2023/10/11 09:20:15;;;;;;;;;;;;;;;17.84;100.00;101426.69;5023742;28;20417;-78
2023/10/11 09:22:47;;;;;;;;;;;;;;;17.80;100.00;101408.44;5054818;28;19962;-78
2023/10/11 09:25:21;;;;;;;;;;;;;;;17.74;100.00;101420.09;5018172;28;20021;-77
2023/10/11 09:27:49;;;;;;;;;;;;;;;17.75;100.00;101422.66;5045953;28;19960;-78
2023/10/11 09:30:20;;;;;;;;;;;;;;;17.81;100.00;101418.91;5039461;28;19964;-77
2023/10/11 09:32:49;;;;;;;;;;;;;;;17.83;100.00;101422.34;5017674;28;20317;-77
2023/10/11 09:35:28;;;;;;;;;;;;;;;17.89;100.00;101432.63;5040783;28;19917;-78
2023/10/11 09:37:57;;;;;;;;;;;;;;;17.96;100.00;101433.22;5023848;28;19975;-77
2023/10/11 09:40:31;;;;;;;;;;;;;;;17.92;100.00;101432.50;5040958;28;19957;-77
2023/10/11 09:42:57;;;;;;;;;;;;;;;17.94;100.00;101437.69;5024372;28;20406;-78
2023/10/11 09:45:25;;;;;;;;;;;;;;;17.92;100.00;101437.78;5014240;28;20005;-77
2023/10/11 09:47:54;;;;;;;;;;;;;;;17.97;100.00;101435.78;5025427;28;20368;-77
2023/10/11 09:50:22;;;;;;;;;;;;;;;18.07;100.00;101441.50;5010164;28;19924;-78
2023/10/11 09:52:49;;;;;;;;;;;;;;;18.13;100.00;101437.72;5028185;28;19925;-77
2023/10/11 09:55:17;;;;;;;;;;;;;;;18.14;100.00;101442.06;5041318;28;19917;-78
2023/10/11 09:57:50;;;;;;;;;;;;;;;18.15;100.00;101443.81;5029497;28;19970;-78
2023/10/11 10:00:18;;;;;;;;;;;;;;;18.13;100.00;101445.66;5042001;28;20430;-77
2023/10/11 10:02:50;;;;;;;;;;;;;;;18.19;100.00;101440.94;5030189;28;20283;-77
2023/10/11 10:05:16;;;;;;;;;;;;;;;18.22;100.00;101438.16;5011036;28;19924;-78
2023/10/11 10:10:07;;;;;;;;;;;;;;;18.25;100.00;101438.03;5009671;28;19947;-78
2023/10/11 10:12:33;;;;;;;;;;;;;;;18.19;100.00;101446.22;5021739;28;19922;-78
2023/10/11 10:15:09;;;;;;;;;;;;;;;18.16;100.00;101437.59;5039457;28;20378;-78
2023/10/11 10:17:37;;;;;;;;;;;;;;;18.11;100.00;101450.97;5016156;28;20007;-78
2023/10/11 10:20:21;;;;;;;;;;;;;;;18.12;100.00;101455.34;5045593;28;20353;-78
2023/10/11 10:23:06;;;;;;;;;;;;;;;18.12;100.00;101449.22;5031241;28;19918;-77
2023/10/11 10:25:31;;;;;;;;;;;;;;;18.07;100.00;101459.97;5047062;28;19918;-78
2023/10/11 10:27:57;;;;;;;;;;;;;;;17.91;100.00;101461.56;5031881;28;19917;-77
2023/10/11 10:30:27;;;;;;;;;;;;;;;17.75;100.00;101449.00;5012714;28;19920;-76
2023/10/11 10:33:11;;;;;;;;;;;;;;;17.85;100.00;101453.94;5011065;28;19945;-76
2023/10/11 10:35:39;;;;;;;;;;;;;;;17.78;100.00;101451.56;5034932;28;20407;-76
2023/10/11 10:38:09;;;;;;;;;;;;;;;17.74;100.00;101452.59;5018098;28;19917;-76
2023/10/11 10:40:37;;;;;;;;;;;;;;;17.70;100.00;101444.88;5041049;28;20016;-76
2023/10/11 10:43:19;;;;;;;;;;;;;;;17.69;100.00;101448.44;5023623;28;19922;-76
2023/10/11 10:45:47;;;;;;;;;;;;;;;17.63;100.00;101444.31;5020787;28;20323;-77
2023/10/11 10:48:19;;;;;;;;;;;;;;;17.63;100.00;101444.31;5026523;28;20459;-77
2023/10/11 10:50:46;;;;;;;;;;;;;;;17.63;100.00;101449.56;5016616;28;19917;-76
2023/10/11 10:53:11;;;;;;;;;;;;;;;17.59;100.00;101440.06;5014809;28;19931;-77
2023/10/11 10:55:36;;;;;;;;;;;;;;;17.56;100.00;101453.41;5031149;28;19917;-78
2023/10/11 10:58:03;;;;;;;;;;;;;;;17.48;100.00;101460.75;5014179;28;19925;-78
2023/10/11 11:00:33;;;;;;;;;;;;;;;17.53;100.00;101448.25;5011793;28;19913;-77
2023/10/11 11:02:59;;;;;;;;;;;;;;;17.61;100.00;101445.28;5023254;28;20138;-77
2023/10/11 11:05:29;;;;;;;;;;;;;;;17.65;100.00;101438.94;5019378;28;19924;-77
2023/10/11 11:08:15;;;;;;;;;;;;;;;17.71;100.00;101447.44;5024956;28;20004;-77
2023/10/11 11:10:54;;;;;;;;;;;;;;;17.82;100.00;101443.50;5040968;28;19946;-76
2023/10/11 11:13:19;;;;;;;;;;;;;;;17.97;100.00;101448.13;5011571;28;19983;-77
2023/10/11 11:15:44;;;;;;;;;;;;;;;18.01;100.00;101429.44;5018675;28;19965;-78
2023/10/11 11:18:11;;;;;;;;;;;;;;;18.00;100.00;101433.00;5015519;28;19921;-77
2023/10/11 11:20:40;;;;;;;;;;;;;;;18.08;100.00;101418.59;5019320;28;20376;-77
2023/10/11 11:23:06;;;;;;;;;;;;;;;18.31;100.00;101415.78;5020854;28;20321;-77
2023/10/11 11:25:34;;;;;;;;;;;;;;;18.41;100.00;101414.41;5008191;28;19921;-77
2023/10/11 11:28:03;;;;;;;;;;;;;;;18.49;100.00;101406.97;5015998;28;20341;-77
2023/10/11 11:30:34;;;;;;;;;;;;;;;18.58;100.00;101418.03;5032474;28;20368;-83
2023/10/11 11:33:00;;;;;;;;;;;;;;;18.49;100.00;101414.03;5011918;28;19965;-82
2023/10/11 11:35:28;;;;;;;;;;;;;;;18.43;100.00;101415.19;5038057;28;19917;-82
2023/10/11 11:38:05;;;;;;;;;;;;;;;18.42;100.00;101412.63;5014444;28;19917;-76
2023/10/11 11:40:36;;;;;;;;;;;;;;;18.31;100.00;101413.16;5015549;28;19917;-77
2023/10/11 11:43:03;;;;;;;;;;;;;;;18.25;100.00;101406.34;5011860;28;19924;-77
2023/10/11 11:45:32;;;;;;;;;;;;;;;18.23;100.00;101386.25;5015265;28;19917;-77
2023/10/11 11:47:57;;;;;;;;;;;;;;;18.33;100.00;101376.09;5009968;28;19917;-77
2023/10/11 11:50:26;;;;;;;;;;;;;;;18.52;100.00;101368.16;5018011;28;19917;-77
2023/10/11 11:52:52;;;;;;;;;;;;;;;18.78;100.00;101380.13;5063619;28;20026;-77
2023/10/11 11:55:20;;;;;;;;;;;;;;;18.87;100.00;101380.53;5041931;28;20024;-77
2023/10/11 11:57:47;;;;;;;;;;;;;;;18.92;100.00;101367.94;5022109;28;19948;-77
2023/10/11 12:02:54;;;;;;;;;;;;;;;18.89;100.00;101381.28;5031619;28;19915;-83
2023/10/11 12:05:19;;;;;;;;;;;;;;;18.87;100.00;101377.91;5071796;28;19916;-82
2023/10/11 12:07:44;;;;;;;;;;;;;;;18.97;100.00;101356.31;5015669;28;19931;-83
2023/10/11 12:10:23;;;;;;;;;;;;;;;19.17;100.00;101353.50;5011313;28;20265;-81
2023/10/11 12:12:51;;;;;;;;;;;;;;;19.60;100.00;101345.97;5011438;28;19917;-82
2023/10/11 12:15:17;;;;;;;;;;;;;;;20.31;100.00;101335.91;5047769;28;19924;-82
2023/10/11 12:17:42;;;;;;;;;;;;;;;20.86;100.00;101333.69;5025557;28;19925;-81
2023/10/11 12:20:12;;;;;;;;;;;;;;;21.03;100.00;101328.25;5024910;28;20425;-82
2023/10/11 12:22:42;;;;;;;;;;;;;;;21.11;100.00;101319.84;5051067;28;19924;-82
2023/10/11 12:25:07;;;;;;;;;;;;;;;21.19;100.00;101325.50;5052917;28;19955;-82
2023/10/11 12:27:33;;;;;;;;;;;;;;;21.37;100.00;101320.94;5030559;28;19980;-81
2023/10/11 12:29:59;;;;;;;;;;;;;;;21.68;100.00;101322.53;5006591;28;19921;-82
2023/10/11 12:32:24;;;;;;;;;;;;;;;22.15;100.00;101324.88;5005605;28;19917;-82
2023/10/11 12:34:51;;;;;;;;;;;;;;;22.39;100.00;101327.72;5038954;28;19994;-82
2023/10/11 12:37:16;;;;;;;;;;;;;;;22.24;100.00;101330.56;5016356;28;19917;-82
2023/10/11 12:39:41;;;;;;;;;;;;;;;21.85;100.00;101324.16;5009995;28;19922;-82
2023/10/11 12:42:11;;;;;;;;;;;;;;;21.44;100.00;101325.75;5005087;28;20699;-84
2023/10/11 12:44:40;;;;;;;;;;;;;;;21.05;100.00;101329.84;5006530;28;19917;-83
2023/10/11 12:47:10;;;;;;;;;;;;;;;20.78;100.00;101319.09;5035210;28;20008;-83
2023/10/11 12:49:35;;;;;;;;;;;;;;;20.80;100.00;101317.22;5021311;28;20254;-84
2023/10/11 12:52:05;;;;;;;;;;;;;;;20.85;100.00;101310.78;5025548;28;19970;-84
2023/10/11 12:54:31;;;;;;;;;;;;;;;20.80;100.00;101313.72;5032763;28;19968;-82
2023/10/11 12:56:56;;;;;;;;;;;;;;;20.78;100.00;101303.19;5019615;28;19917;-84
2023/10/11 12:59:22;;;;;;;;;;;;;;;20.75;100.00;101316.63;5010730;28;19921;-84
2023/10/11 13:01:55;;;;;;;;;;;;;;;20.71;100.00;101314.25;5016847;28;19918;-84
2023/10/11 13:04:24;;;;;;;;;;;;;;;20.69;100.00;101303.72;5030204;28;19917;-83
2023/10/11 13:06:49;;;;;;;;;;;;;;;20.65;100.00;101302.22;5013857;28;19917;-83
2023/10/11 13:09:16;;;;;;;;;;;;;;;20.55;100.00;101311.63;5021452;28;19917;-83
2023/10/11 13:11:44;;;;;;;;;;;;;;;20.46;100.00;101304.19;5022329;28;20008;-83